createdAt,value
2017-08-20T07:42:15.951Z,20.50
2017-08-20T07:44:43.673Z,19.20
2017-08-20T07:47:12.082Z,19.00
2017-08-20T07:49:39.609Z,19.00
2017-08-20T07:52:08.359Z,19.60
2017-08-20T07:54:38.541Z,21.10
2017-08-20T07:57:08.668Z,22.60
2017-08-20T07:59:37.269Z,23.40
2017-08-20T08:02:05.013Z,24.40
2017-08-20T08:04:37.110Z,25.00
2017-08-20T08:07:05.701Z,25.20
2017-08-20T08:10:18.963Z,25.20
2017-08-20T08:12:46.484Z,24.70
2017-08-20T08:15:14.197Z,24.00
2017-08-20T08:17:41.756Z,24.30
2017-08-20T08:20:09.393Z,24.60
2017-08-20T08:22:37.290Z,24.60
2017-08-20T08:25:04.821Z,24.00
2017-08-20T08:27:32.328Z,23.80
2017-08-20T08:29:59.860Z,22.50
2017-08-20T08:32:28.505Z,23.40
2017-08-20T08:34:56.032Z,23.00
2017-08-20T08:37:24.576Z,21.60
2017-08-20T08:39:52.102Z,20.30
2017-08-20T08:42:19.742Z,19.60
2017-08-20T08:44:48.539Z,20.70
2017-08-20T08:47:16.484Z,21.90
2017-08-20T08:49:43.982Z,22.80
2017-08-20T08:52:11.640Z,23.70
2017-08-20T08:54:39.402Z,24.20
2017-08-20T08:57:07.657Z,24.10
2017-08-20T08:59:35.321Z,23.20
2017-08-20T09:02:03.017Z,21.20
2017-08-20T09:04:30.589Z,19.70
2017-08-20T09:06:58.188Z,18.40
2017-08-20T09:09:26.664Z,17.80
2017-08-20T09:11:54.224Z,18.10
2017-08-20T09:14:21.845Z,18.70
2017-08-20T09:16:49.464Z,19.30
2017-08-20T09:19:16.988Z,19.60
2017-08-20T09:21:44.602Z,20.00
2017-08-20T09:24:12.133Z,20.20
2017-08-20T09:26:39.641Z,20.40
2017-08-20T09:29:07.172Z,20.70
2017-08-20T09:31:35.820Z,20.40
2017-08-20T09:34:03.342Z,20.50
2017-08-20T09:36:30.860Z,20.60
2017-08-20T09:38:58.356Z,20.70
2017-08-20T09:41:26.772Z,20.60
2017-08-20T09:43:54.368Z,20.60
2017-08-20T09:46:21.895Z,20.60
2017-08-20T09:48:49.396Z,20.50
2017-08-20T09:51:17.022Z,20.40
2017-08-20T09:53:44.832Z,20.20
2017-08-20T09:56:12.548Z,20.80
2017-08-20T09:58:40.137Z,20.80
2017-08-20T10:01:08.075Z,20.30
2017-08-20T10:03:35.603Z,20.20
2017-08-20T10:06:04.209Z,19.90
2017-08-20T10:08:31.736Z,20.20
2017-08-20T10:10:59.309Z,20.20
2017-08-20T10:13:26.946Z,20.20
2017-08-20T10:15:54.605Z,19.90
2017-08-20T10:18:22.276Z,19.30
2017-08-20T10:20:49.805Z,18.70
2017-08-20T10:23:17.310Z,18.50
2017-08-20T10:25:44.952Z,18.50
2017-08-20T10:28:12.566Z,18.70
2017-08-20T10:30:40.218Z,19.00
2017-08-20T10:33:07.749Z,19.00
2017-08-20T10:35:35.397Z,19.00
2017-08-20T10:38:03.076Z,19.40
2017-08-20T10:40:30.588Z,19.90
2017-08-20T10:42:58.108Z,20.10
2017-08-20T10:45:25.608Z,19.80
2017-08-20T10:47:53.150Z,19.10
2017-08-20T10:50:20.657Z,18.70
2017-08-20T10:52:48.392Z,18.60
2017-08-20T10:55:16.116Z,18.50
2017-08-20T10:57:43.762Z,18.60
2017-08-20T11:00:11.260Z,18.80
2017-08-20T11:02:38.932Z,18.80
2017-08-20T11:05:06.676Z,18.90
2017-08-20T11:07:34.291Z,19.10
2017-08-20T11:10:02.005Z,19.20
2017-08-20T11:12:29.505Z,19.30
2017-08-20T11:14:57.027Z,19.10
2017-08-20T11:17:24.544Z,19.30
2017-08-20T11:19:53.172Z,19.40
2017-08-20T11:22:20.676Z,19.30
2017-08-20T11:24:48.273Z,19.30
2017-08-20T11:27:15.964Z,19.70
2017-08-20T11:29:43.613Z,20.20
2017-08-20T11:32:11.237Z,20.60
2017-08-20T11:34:38.873Z,20.80
2017-08-20T11:37:06.528Z,20.90
2017-08-20T11:39:35.467Z,21.00
2017-08-20T11:42:03.101Z,20.80
2017-08-20T11:44:31.589Z,20.80
2017-08-20T11:46:59.121Z,20.40
2017-08-20T11:49:26.732Z,20.10
2017-08-20T11:51:54.278Z,20.10
2017-08-20T11:54:22.384Z,20.30
2017-08-20T11:56:49.909Z,20.20
2017-08-20T11:59:17.481Z,20.00
2017-08-20T12:01:45.038Z,19.70
2017-08-20T12:04:12.761Z,19.60
2017-08-20T12:06:40.265Z,19.40
2017-08-20T12:09:07.789Z,19.30
2017-08-20T12:11:35.285Z,19.10
2017-08-20T12:14:02.893Z,19.10
2017-08-20T12:16:30.406Z,19.30
2017-08-20T12:18:58.026Z,19.40
2017-08-20T12:21:25.530Z,19.10
2017-08-20T12:23:53.168Z,19.00
2017-08-20T12:26:20.677Z,18.90
2017-08-20T12:28:48.181Z,18.90
2017-08-20T12:31:15.752Z,18.90
2017-08-20T12:33:44.623Z,19.00
2017-08-20T12:36:12.140Z,19.00
2017-08-20T12:38:39.813Z,19.00
2017-08-20T12:41:07.561Z,19.10
2017-08-20T12:43:35.333Z,19.20
2017-08-20T12:46:02.928Z,19.10
2017-08-20T12:48:30.452Z,18.90
2017-08-20T12:50:58.057Z,18.90
2017-08-20T12:53:25.660Z,19.00
2017-08-20T12:55:53.160Z,19.00
2017-08-20T12:58:20.687Z,19.20
2017-08-20T13:00:48.186Z,19.10
2017-08-20T13:03:15.704Z,18.70
2017-08-20T13:05:43.336Z,18.70
2017-08-20T13:08:10.882Z,18.40
2017-08-20T13:10:38.593Z,18.30
2017-08-20T13:13:06.130Z,18.20
2017-08-20T13:15:33.770Z,18.40
2017-08-20T13:18:01.307Z,18.40
2017-08-20T13:20:28.879Z,18.40
2017-08-20T13:22:56.377Z,18.50
2017-08-20T13:25:24.012Z,18.70
2017-08-20T13:27:51.513Z,19.00
2017-08-20T13:30:19.166Z,19.50
2017-08-20T13:32:46.686Z,19.40
2017-08-20T13:35:14.257Z,19.50
2017-08-20T13:37:42.054Z,19.80
2017-08-20T13:40:09.825Z,20.20
2017-08-20T13:42:37.320Z,20.40
2017-08-20T13:45:04.918Z,20.40
2017-08-20T13:47:32.435Z,20.00
2017-08-20T13:49:59.940Z,19.80
2017-08-20T13:52:27.462Z,19.80
2017-08-20T13:54:55.788Z,19.90
2017-08-20T13:57:23.358Z,20.10
2017-08-20T13:59:53.261Z,20.30
2017-08-20T14:02:26.086Z,20.10
2017-08-20T14:04:55.412Z,20.10
2017-08-20T14:07:24.878Z,20.10
2017-08-20T14:09:57.797Z,20.00
2017-08-20T14:14:59.579Z,19.80
2017-08-20T14:17:28.151Z,20.30
2017-08-20T14:19:56.496Z,20.40
2017-08-20T14:22:26.391Z,20.60
2017-08-20T14:24:56.900Z,20.40
2017-08-20T14:27:30.356Z,20.30
2017-08-20T14:30:04.480Z,20.40
2017-08-20T14:35:11.777Z,20.40
2017-08-20T14:37:42.404Z,19.70
2017-08-20T14:40:13.286Z,19.80
2017-08-20T14:42:43.353Z,20.00
2017-08-20T14:45:13.369Z,19.90
2017-08-20T14:47:44.763Z,19.80
2017-08-20T14:50:19.201Z,20.00
2017-08-20T14:52:52.011Z,19.80
2017-08-20T14:55:25.230Z,19.90
2017-08-20T14:57:56.784Z,20.00
2017-08-20T15:00:27.319Z,20.10
2017-08-20T15:02:58.972Z,20.10
2017-08-20T15:08:22.128Z,19.80
2017-08-20T15:10:56.680Z,19.80
2017-08-20T15:13:45.221Z,19.70
2017-08-20T15:19:10.468Z,19.30
2017-08-20T15:21:51.789Z,19.30
2017-08-20T15:27:24.462Z,19.30
2017-08-20T15:30:02.200Z,19.20
2017-08-20T15:35:40.815Z,19.00
2017-08-20T15:41:05.360Z,18.00
2017-08-20T15:43:34.497Z,17.70
2017-08-20T15:46:02.261Z,17.20
2017-08-20T15:48:38.965Z,16.60
2017-08-20T15:51:15.596Z,16.20
2017-08-20T15:53:44.358Z,16.30
2017-08-20T15:56:12.295Z,16.50
2017-08-20T15:58:40.017Z,16.50
2017-08-20T16:01:07.550Z,16.80
2017-08-20T16:03:35.048Z,16.90
2017-08-20T16:06:02.832Z,17.10
2017-08-20T16:08:30.342Z,17.10
2017-08-20T16:10:58.182Z,17.30
2017-08-20T16:16:18.971Z,17.20
2017-08-20T16:18:46.664Z,17.30
2017-08-20T16:21:14.218Z,17.50
2017-08-20T16:23:41.742Z,17.40
2017-08-20T16:26:09.235Z,17.40
2017-08-20T16:28:37.237Z,17.40
2017-08-20T16:31:04.737Z,17.20
2017-08-20T16:33:32.641Z,17.10
2017-08-20T16:36:01.553Z,17.10
